createdAt,value
2022-10-19T00:01:08.579Z,5.10
2022-10-19T00:04:35.250Z,5.00
2022-10-19T00:08:06.237Z,4.80
2022-10-19T00:11:34.330Z,5.50
2022-10-19T00:15:01.740Z,4.70
2022-10-19T00:18:28.532Z,5.20
2022-10-19T00:21:56.454Z,5.10
2022-10-19T00:25:23.414Z,5.50
2022-10-19T00:28:50.639Z,4.80
2022-10-19T00:32:17.529Z,4.60
2022-10-19T00:35:45.093Z,4.30
2022-10-19T00:39:15.679Z,3.90
2022-10-19T00:42:42.580Z,4.40
2022-10-19T00:46:16.338Z,4.10
2022-10-19T00:53:10.038Z,3.70
2022-10-19T00:56:40.009Z,3.60
2022-10-19T01:00:11.690Z,4.40
2022-10-19T01:03:39.541Z,4.40
2022-10-19T01:07:08.307Z,3.90
2022-10-19T01:10:44.867Z,3.70
2022-10-19T01:14:27.090Z,3.80
2022-10-19T01:18:04.676Z,3.70
2022-10-19T01:21:43.382Z,3.70
2022-10-19T01:25:25.054Z,4.20
2022-10-19T01:29:03.941Z,3.50
2022-10-19T01:32:39.542Z,3.60
2022-10-19T01:36:15.716Z,4.50
2022-10-19T01:39:51.777Z,4.00
2022-10-19T01:43:26.337Z,4.10
2022-10-19T01:46:58.440Z,4.40
2022-10-19T01:50:30.683Z,4.30
2022-10-19T01:54:04.363Z,4.20
2022-10-19T01:57:38.700Z,4.70
2022-10-19T02:04:43.790Z,4.00
2022-10-19T02:08:17.305Z,3.80
2022-10-19T02:11:46.440Z,3.70
2022-10-19T02:15:20.012Z,4.20
2022-10-19T02:18:50.488Z,3.60
2022-10-19T02:22:16.949Z,3.70
2022-10-19T02:25:43.875Z,4.10
2022-10-19T02:29:12.835Z,4.20
2022-10-19T02:32:39.186Z,4.20
2022-10-19T02:36:07.035Z,3.70
2022-10-19T02:39:33.783Z,4.40
2022-10-19T02:43:06.424Z,4.20
2022-10-19T02:46:37.427Z,4.30
2022-10-19T02:50:06.103Z,3.60
2022-10-19T02:53:33.077Z,3.70
2022-10-19T02:56:59.558Z,3.90
2022-10-19T03:00:26.568Z,3.80
2022-10-19T03:03:52.847Z,3.70
2022-10-19T03:07:21.253Z,3.90
2022-10-19T03:10:48.087Z,3.20
2022-10-19T03:14:14.556Z,3.90
2022-10-19T03:17:41.154Z,3.60
2022-10-19T03:24:51.096Z,2.90
2022-10-19T03:28:17.793Z,2.60
2022-10-19T03:31:44.214Z,2.80
2022-10-19T03:35:11.347Z,2.50
2022-10-19T03:38:37.877Z,2.40
2022-10-19T03:42:06.564Z,2.50
2022-10-19T03:45:33.278Z,3.90
2022-10-19T03:48:59.709Z,2.30
2022-10-19T03:52:26.771Z,3.00
2022-10-19T03:55:53.215Z,3.00
2022-10-19T03:59:19.729Z,2.70
2022-10-19T04:02:46.197Z,3.00
2022-10-19T04:06:18.190Z,2.90
2022-10-19T04:09:47.882Z,2.50
2022-10-19T04:13:14.490Z,2.50
2022-10-19T04:16:41.833Z,3.70
2022-10-19T04:20:10.224Z,2.60
2022-10-19T04:23:39.237Z,2.80
2022-10-19T04:27:05.901Z,2.30
2022-10-19T04:30:32.935Z,2.40
2022-10-19T04:33:59.821Z,2.60
2022-10-19T04:37:26.703Z,2.30
2022-10-19T04:40:53.418Z,2.50
2022-10-19T04:44:20.444Z,2.30
2022-10-19T04:47:47.139Z,2.50
2022-10-19T04:51:17.274Z,2.40
2022-10-19T04:54:43.805Z,2.50
2022-10-19T04:58:10.446Z,3.00
2022-10-19T05:01:46.455Z,2.30
2022-10-19T05:05:14.646Z,3.00
2022-10-19T05:08:41.448Z,2.80
2022-10-19T05:12:08.670Z,2.60
2022-10-19T05:15:36.373Z,2.60
2022-10-19T05:19:02.608Z,2.60
2022-10-19T05:22:29.620Z,2.50
2022-10-19T05:26:04.774Z,2.50
2022-10-19T05:29:31.545Z,2.40
2022-10-19T05:32:57.997Z,2.30
2022-10-19T05:36:26.489Z,2.50
2022-10-19T05:39:53.278Z,2.80
2022-10-19T05:43:19.814Z,1.70
2022-10-19T05:46:47.602Z,2.10
2022-10-19T05:50:14.472Z,2.40
2022-10-19T05:53:41.253Z,2.10
2022-10-19T05:57:07.788Z,2.50
2022-10-19T06:00:34.845Z,1.90
2022-10-19T06:04:03.246Z,2.20
2022-10-19T06:07:30.063Z,2.60
2022-10-19T06:11:05.300Z,2.30
2022-10-19T06:14:31.752Z,2.20
2022-10-19T06:17:58.283Z,1.70
2022-10-19T06:21:27.696Z,2.30
2022-10-19T06:24:54.251Z,1.90
2022-10-19T06:28:20.994Z,1.70
2022-10-19T06:31:49.443Z,1.70
2022-10-19T06:35:17.344Z,2.10
2022-10-19T06:38:44.350Z,1.50
2022-10-19T06:42:12.484Z,2.50
2022-10-19T06:45:41.960Z,2.20
2022-10-19T06:49:08.385Z,1.80
2022-10-19T06:52:35.885Z,1.40
2022-10-19T06:56:03.829Z,1.50
2022-10-19T06:59:33.184Z,1.40
2022-10-19T07:03:00.739Z,2.40
2022-10-19T07:06:29.767Z,1.90
2022-10-19T07:09:56.304Z,2.30
2022-10-19T07:13:22.849Z,2.20
2022-10-19T07:16:51.663Z,1.90
2022-10-19T07:20:18.453Z,1.60
2022-10-19T07:23:47.563Z,1.80
2022-10-19T07:27:14.112Z,1.80
2022-10-19T07:30:42.488Z,1.50
2022-10-19T07:34:12.903Z,1.70
2022-10-19T07:37:39.225Z,1.90
2022-10-19T07:41:12.887Z,1.70
2022-10-19T07:44:39.161Z,2.00
2022-10-19T07:48:05.665Z,1.80
2022-10-19T07:51:32.178Z,2.40
2022-10-19T07:54:58.587Z,1.40
2022-10-19T07:58:28.102Z,1.60
2022-10-19T08:01:56.050Z,1.50
2022-10-19T08:05:22.825Z,1.60
2022-10-19T08:08:50.766Z,1.40
2022-10-19T08:12:17.158Z,1.20
2022-10-19T08:15:43.766Z,0.80
2022-10-19T08:19:12.057Z,1.30
2022-10-19T08:22:38.813Z,1.00
2022-10-19T08:26:05.541Z,0.80
2022-10-19T08:29:32.330Z,0.90
2022-10-19T08:32:59.048Z,0.50
2022-10-19T08:36:27.872Z,0.70
2022-10-19T08:39:54.623Z,0.50
2022-10-19T08:43:36.358Z,0.50
2022-10-19T08:47:13.867Z,0.50
2022-10-19T08:51:03.149Z,0.30
2022-10-19T08:54:36.944Z,0.70
2022-10-19T08:58:15.163Z,0.50
2022-10-19T09:01:48.374Z,0.60
2022-10-19T09:08:44.018Z,0.60
2022-10-19T09:12:16.891Z,0.30
2022-10-19T09:15:45.869Z,0.70
2022-10-19T09:19:26.029Z,0.60
2022-10-19T09:23:01.666Z,0.30
2022-10-19T09:26:32.496Z,0.40
2022-10-19T09:30:03.928Z,0.30
2022-10-19T09:33:36.910Z,0.60
2022-10-19T09:37:04.437Z,0.50
2022-10-19T09:40:32.429Z,0.40
2022-10-19T09:44:05.258Z,0.30
2022-10-19T09:47:47.671Z,0.40
2022-10-19T09:51:17.596Z,0.30
2022-10-19T09:54:44.776Z,0.90
2022-10-19T09:58:20.540Z,0.60
2022-10-19T10:01:46.978Z,0.60
2022-10-19T10:05:17.902Z,0.40
2022-10-19T10:08:50.396Z,0.60
2022-10-19T10:12:18.989Z,0.30
2022-10-19T10:15:49.465Z,0.40
2022-10-19T10:19:19.178Z,0.30
2022-10-19T10:22:59.281Z,0.50
2022-10-19T10:26:29.364Z,0.60
2022-10-19T10:29:59.591Z,0.50
2022-10-19T10:33:40.762Z,0.40
2022-10-19T10:37:21.657Z,0.30
2022-10-19T10:40:55.914Z,0.40
2022-10-19T10:44:29.923Z,0.50
2022-10-19T10:47:58.420Z,0.60
2022-10-19T10:51:34.104Z,0.60
2022-10-19T10:55:18.753Z,0.50
2022-10-19T10:58:51.930Z,0.50
2022-10-19T11:02:34.865Z,1.20
2022-10-19T11:06:03.307Z,0.50
2022-10-19T11:09:36.073Z,0.60
2022-10-19T11:13:09.849Z,0.30
2022-10-19T11:16:42.789Z,0.50
2022-10-19T11:20:17.438Z,0.40
2022-10-19T11:24:03.024Z,0.30
2022-10-19T11:27:45.092Z,0.70
2022-10-19T11:31:18.065Z,0.30
2022-10-19T11:35:00.744Z,0.30
2022-10-19T11:38:38.004Z,0.50
2022-10-19T11:42:17.518Z,0.20
2022-10-19T11:46:01.267Z,0.60
2022-10-19T11:49:42.628Z,0.90
2022-10-19T11:53:17.870Z,0.50
2022-10-19T11:57:03.245Z,0.40
2022-10-19T12:00:39.911Z,0.20
2022-10-19T12:04:49.280Z,0.10
2022-10-19T12:08:35.504Z,0.30
2022-10-19T12:12:22.197Z,0.20
2022-10-19T12:15:54.214Z,0.30
2022-10-19T12:19:36.348Z,0.40
2022-10-19T12:23:23.595Z,0.20
2022-10-19T12:26:51.959Z,0.40
2022-10-19T12:30:22.707Z,0.20
2022-10-19T12:34:01.230Z,0.30
2022-10-19T12:37:36.229Z,0.30
2022-10-19T12:41:16.172Z,0.70
2022-10-19T12:45:19.327Z,0.30
2022-10-19T12:48:46.079Z,0.50
2022-10-19T12:52:14.532Z,0.90
2022-10-19T12:55:43.538Z,0.60
2022-10-19T12:59:25.930Z,1.10
2022-10-19T13:03:05.460Z,0.30
2022-10-19T13:06:37.404Z,0.50
2022-10-19T13:10:06.207Z,0.50
2022-10-19T13:13:53.810Z,0.40
2022-10-19T13:17:44.102Z,0.60
2022-10-19T13:21:11.422Z,0.70
2022-10-19T13:28:53.753Z,0.50
2022-10-19T13:32:52.239Z,0.50
2022-10-19T13:36:20.074Z,0.50
2022-10-19T13:39:48.505Z,0.80
2022-10-19T13:43:23.406Z,1.00
2022-10-19T13:47:02.226Z,1.00
2022-10-19T13:50:43.928Z,0.90
2022-10-19T13:54:33.176Z,0.30
2022-10-19T13:58:21.815Z,0.40
2022-10-19T14:02:02.607Z,0.60
2022-10-19T14:05:49.755Z,0.60
2022-10-19T14:09:48.064Z,0.60
2022-10-19T14:13:17.516Z,0.60
2022-10-19T14:16:56.010Z,0.40
2022-10-19T14:20:36.812Z,0.40
2022-10-19T14:24:04.192Z,0.70
2022-10-19T14:27:31.944Z,0.90
2022-10-19T14:31:02.339Z,0.80
2022-10-19T14:34:29.035Z,0.60
2022-10-19T14:37:55.880Z,0.20
2022-10-19T14:45:08.102Z,0.30
2022-10-19T14:48:36.394Z,0.40
2022-10-19T14:52:08.216Z,0.50
2022-10-19T14:55:40.857Z,0.40
2022-10-19T14:59:19.363Z,0.30
2022-10-19T15:02:48.721Z,0.50
2022-10-19T15:06:23.561Z,0.50
2022-10-19T15:09:58.401Z,0.40
2022-10-19T15:13:30.419Z,0.60
2022-10-19T15:16:59.983Z,0.90
2022-10-19T15:20:43.922Z,0.70
2022-10-19T15:24:29.324Z,0.50
2022-10-19T15:27:58.034Z,1.00
2022-10-19T15:31:30.595Z,1.00
2022-10-19T15:35:12.736Z,0.60
2022-10-19T15:38:39.956Z,0.60
2022-10-19T15:42:25.150Z,0.90
2022-10-19T15:46:03.597Z,0.70
2022-10-19T15:50:01.190Z,0.70
2022-10-19T15:53:33.572Z,0.70
2022-10-19T15:57:03.254Z,0.60
2022-10-19T16:00:32.616Z,0.50
2022-10-19T16:04:00.850Z,1.00
2022-10-19T16:07:32.360Z,1.50
2022-10-19T16:11:02.429Z,1.40
2022-10-19T16:14:37.409Z,1.30
2022-10-19T16:18:06.481Z,1.60
2022-10-19T16:21:36.449Z,2.00
2022-10-19T16:25:03.505Z,1.70
2022-10-19T16:28:30.413Z,1.20
2022-10-19T16:32:02.480Z,1.90
2022-10-19T16:35:32.329Z,1.70
2022-10-19T16:39:08.085Z,1.60
2022-10-19T16:42:37.274Z,2.10
2022-10-19T16:46:06.164Z,2.60
2022-10-19T16:49:34.828Z,2.60
2022-10-19T16:53:12.769Z,3.20
2022-10-19T16:56:45.356Z,3.10
2022-10-19T17:00:16.992Z,3.30
2022-10-19T17:03:43.695Z,3.30
2022-10-19T17:07:13.675Z,3.40
2022-10-19T17:10:40.930Z,2.90
2022-10-19T17:14:12.086Z,4.80
2022-10-19T17:17:39.494Z,5.00
2022-10-19T17:21:20.421Z,4.90
2022-10-19T17:24:47.683Z,5.80
2022-10-19T17:28:14.575Z,6.40
2022-10-19T17:31:42.561Z,6.50
2022-10-19T17:35:11.192Z,6.20
2022-10-19T17:38:38.583Z,5.70
2022-10-19T17:42:07.005Z,5.90
2022-10-19T17:45:36.513Z,6.60
2022-10-19T17:49:05.618Z,5.40
2022-10-19T17:52:32.616Z,4.70
2022-10-19T17:56:02.440Z,4.50
2022-10-19T17:59:30.588Z,3.70
2022-10-19T18:03:02.891Z,3.70
2022-10-19T18:06:31.899Z,3.60
2022-10-19T18:10:02.068Z,3.70
2022-10-19T18:13:29.440Z,3.30
2022-10-19T18:16:58.375Z,3.80
2022-10-19T18:20:25.540Z,3.70
2022-10-19T18:23:53.728Z,3.20
2022-10-19T18:27:23.738Z,3.30
2022-10-19T18:30:50.584Z,2.80
2022-10-19T18:34:20.325Z,3.00
2022-10-19T18:37:49.668Z,3.60
2022-10-19T18:41:18.430Z,3.90
2022-10-19T18:44:45.132Z,4.60
2022-10-19T18:48:12.414Z,4.40
2022-10-19T18:51:40.032Z,3.80
2022-10-19T18:55:09.883Z,3.60
2022-10-19T18:58:41.081Z,3.80
2022-10-19T19:02:13.692Z,3.30
2022-10-19T19:05:50.317Z,3.60
2022-10-19T19:09:19.194Z,3.70
2022-10-19T19:12:48.325Z,3.40
2022-10-19T19:16:17.322Z,3.60
2022-10-19T19:19:45.712Z,4.30
2022-10-19T19:23:12.358Z,4.00
2022-10-19T19:26:43.414Z,4.30
2022-10-19T19:30:12.267Z,3.80
2022-10-19T19:33:40.153Z,3.80
2022-10-19T19:37:10.347Z,3.60
2022-10-19T19:40:42.170Z,4.30
2022-10-19T19:44:14.571Z,3.60
2022-10-19T19:47:41.807Z,4.40
2022-10-19T19:51:10.723Z,4.80
2022-10-19T19:54:37.713Z,5.20
2022-10-19T19:58:04.463Z,5.70
2022-10-19T20:01:32.302Z,6.10
2022-10-19T20:04:59.040Z,5.50
2022-10-19T20:08:30.848Z,5.20
2022-10-19T20:11:58.989Z,4.50
2022-10-19T20:15:27.208Z,5.70
2022-10-19T20:18:58.020Z,9.10
2022-10-19T20:22:27.143Z,22.80
2022-10-19T20:26:00.003Z,21.40
2022-10-19T20:29:30.446Z,11.50
2022-10-19T20:33:04.861Z,13.10
2022-10-19T20:36:34.268Z,11.90
2022-10-19T20:40:08.563Z,10.70
2022-10-19T20:43:59.265Z,9.10
2022-10-19T20:47:26.100Z,7.50
2022-10-19T20:50:53.139Z,5.90
2022-10-19T20:54:19.663Z,6.80
2022-10-19T20:57:51.159Z,6.60
2022-10-19T21:01:20.363Z,5.70
2022-10-19T21:04:48.287Z,7.40
2022-10-19T21:08:31.060Z,9.60
2022-10-19T21:11:59.557Z,8.60
2022-10-19T21:15:28.431Z,9.50
2022-10-19T21:18:56.191Z,8.70
2022-10-19T21:22:23.326Z,6.80
2022-10-19T21:26:00.677Z,8.50
2022-10-19T21:29:28.646Z,7.80
2022-10-19T21:32:55.470Z,9.00
2022-10-19T21:36:25.476Z,8.30
2022-10-19T21:39:54.394Z,8.90
2022-10-19T21:43:22.433Z,8.40
2022-10-19T21:46:50.697Z,8.70
2022-10-19T21:50:20.132Z,9.10
2022-10-19T21:53:48.104Z,9.20
2022-10-19T21:57:14.983Z,9.70
2022-10-19T22:00:42.347Z,10.10
2022-10-19T22:04:12.899Z,9.90
2022-10-19T22:07:39.530Z,9.10
2022-10-19T22:11:10.232Z,9.80
2022-10-19T22:14:37.384Z,9.40
2022-10-19T22:18:04.620Z,8.40
2022-10-19T22:21:34.194Z,8.80
2022-10-19T22:25:02.932Z,7.70
2022-10-19T22:28:30.213Z,7.90
2022-10-19T22:31:58.364Z,7.90
2022-10-19T22:35:25.799Z,7.60
2022-10-19T22:38:53.873Z,7.70
2022-10-19T22:42:20.750Z,7.90
2022-10-19T22:45:50.052Z,9.10
2022-10-19T22:49:16.273Z,8.40
2022-10-19T22:52:46.524Z,9.50
2022-10-19T22:56:14.407Z,8.60
2022-10-19T22:59:41.011Z,8.40
2022-10-19T23:03:08.474Z,8.30
2022-10-19T23:06:36.358Z,9.20
2022-10-19T23:10:02.994Z,8.90
2022-10-19T23:13:29.910Z,9.40
2022-10-19T23:16:56.901Z,8.60
2022-10-19T23:20:23.454Z,10.80
2022-10-19T23:23:50.247Z,9.70
2022-10-19T23:27:17.616Z,8.80
2022-10-19T23:30:44.957Z,7.60
2022-10-19T23:34:12.048Z,8.10
2022-10-19T23:37:38.956Z,8.10
2022-10-19T23:41:07.119Z,7.60
2022-10-19T23:44:34.236Z,7.90
2022-10-19T23:48:01.722Z,10.10
2022-10-19T23:51:28.393Z,11.60
2022-10-19T23:54:55.232Z,12.20
2022-10-19T23:58:22.150Z,11.30
